sensor_id;sensor_type;location;lat;lon;timestamp;pressure;altitude;pressure_sealevel;temperature;humidity
30598;BME280;17365;48.878;8.334;2023-03-21T00:00:10;100369.72;;;10.28;83.23
30598;BME280;17365;48.878;8.334;2023-03-21T00:02:36;100354.16;;;10.28;82.66
30598;BME280;17365;48.878;8.334;2023-03-21T00:05:02;100359.41;;;10.31;83.19
30598;BME280;17365;48.878;8.334;2023-03-21T00:07:27;100359.25;;;10.19;83.92
30598;BME280;17365;48.878;8.334;2023-03-21T00:09:52;100357.69;;;10.36;82.76
30598;BME280;17365;48.878;8.334;2023-03-21T00:12:17;100344.69;;;10.32;83.39
30598;BME280;17365;48.878;8.334;2023-03-21T00:14:45;100348.75;;;10.02;84.61
30598;BME280;17365;48.878;8.334;2023-03-21T00:17:10;100349.84;;;10.29;83.19
30598;BME280;17365;48.878;8.334;2023-03-21T00:19:35;100353.19;;;10.17;83.88
30598;BME280;17365;48.878;8.334;2023-03-21T00:22:02;100349.81;;;10.23;83.69
30598;BME280;17365;48.878;8.334;2023-03-21T00:24:27;100346.38;;;10.27;83.51
30598;BME280;17365;48.878;8.334;2023-03-21T00:26:52;100342.81;;;10.17;83.74
30598;BME280;17365;48.878;8.334;2023-03-21T00:29:18;100337.56;;;10.08;84.40
30598;BME280;17365;48.878;8.334;2023-03-21T00:31:43;100349.72;;;10.16;83.35
30598;BME280;17365;48.878;8.334;2023-03-21T00:34:08;100340.28;;;10.20;82.74
30598;BME280;17365;48.878;8.334;2023-03-21T00:36:33;100341.09;;;10.16;83.49
30598;BME280;17365;48.878;8.334;2023-03-21T00:38:59;100341.19;;;10.27;82.95
30598;BME280;17365;48.878;8.334;2023-03-21T00:41:24;100337.63;;;10.15;83.47
30598;BME280;17365;48.878;8.334;2023-03-21T00:43:50;100330.63;;;10.01;83.95
30598;BME280;17365;48.878;8.334;2023-03-21T00:46:16;100334.19;;;10.18;82.97
30598;BME280;17365;48.878;8.334;2023-03-21T00:48:41;100327.16;;;9.99;84.17
30598;BME280;17365;48.878;8.334;2023-03-21T00:51:10;100326.50;;;10.29;82.47
30598;BME280;17365;48.878;8.334;2023-03-21T00:53:36;100325.59;;;10.20;82.99
30598;BME280;17365;48.878;8.334;2023-03-21T00:56:01;100317.66;;;9.99;84.00
30598;BME280;17365;48.878;8.334;2023-03-21T00:58:27;100318.38;;;9.81;84.86
30598;BME280;17365;48.878;8.334;2023-03-21T01:00:52;100320.25;;;9.99;84.31
30598;BME280;17365;48.878;8.334;2023-03-21T01:03:17;100315.09;;;10.07;83.89
30598;BME280;17365;48.878;8.334;2023-03-21T01:05:45;100315.94;;;10.03;84.04
30598;BME280;17365;48.878;8.334;2023-03-21T01:08:28;100311.63;;;10.08;83.56
30598;BME280;17365;48.878;8.334;2023-03-21T01:10:54;100318.59;;;10.10;82.86
30598;BME280;17365;48.878;8.334;2023-03-21T01:13:20;100316.75;;;9.96;84.18
30598;BME280;17365;48.878;8.334;2023-03-21T01:15:48;100312.91;;;9.51;86.87
30598;BME280;17365;48.878;8.334;2023-03-21T01:18:14;100312.13;;;9.59;86.46
30598;BME280;17365;48.878;8.334;2023-03-21T01:20:41;100310.50;;;9.74;85.50
30598;BME280;17365;48.878;8.334;2023-03-21T01:23:07;100307.88;;;9.63;86.01
30598;BME280;17365;48.878;8.334;2023-03-21T01:25:32;100311.41;;;9.74;85.31
30598;BME280;17365;48.878;8.334;2023-03-21T01:27:57;100311.38;;;9.71;85.54
30598;BME280;17365;48.878;8.334;2023-03-21T01:30:23;100304.47;;;9.73;85.37
30598;BME280;17365;48.878;8.334;2023-03-21T01:32:48;100303.59;;;9.70;85.61
30598;BME280;17365;48.878;8.334;2023-03-21T01:35:14;100302.72;;;9.69;85.36
30598;BME280;17365;48.878;8.334;2023-03-21T01:37:39;100305.41;;;9.78;85.12
30598;BME280;17365;48.878;8.334;2023-03-21T01:40:04;100305.31;;;9.69;85.05
30598;BME280;17365;48.878;8.334;2023-03-21T01:42:30;100305.38;;;9.77;84.83
30598;BME280;17365;48.878;8.334;2023-03-21T01:45:04;100305.41;;;9.84;84.61
30598;BME280;17365;48.878;8.334;2023-03-21T01:47:30;100307.09;;;9.76;84.65
30598;BME280;17365;48.878;8.334;2023-03-21T01:49:56;100304.59;;;9.88;84.39
30598;BME280;17365;48.878;8.334;2023-03-21T01:52:26;100300.13;;;9.71;84.31
30598;BME280;17365;48.878;8.334;2023-03-21T01:54:52;100290.72;;;9.79;84.64
30598;BME280;17365;48.878;8.334;2023-03-21T01:57:24;100295.03;;;9.81;83.89
30598;BME280;17365;48.878;8.334;2023-03-21T01:59:56;100293.28;;;9.77;84.35
30598;BME280;17365;48.878;8.334;2023-03-21T02:02:29;100285.47;;;9.71;84.49
30598;BME280;17365;48.878;8.334;2023-03-21T02:04:55;100288.13;;;9.77;84.49
30598;BME280;17365;48.878;8.334;2023-03-21T02:07:28;100287.34;;;9.89;84.32
30598;BME280;17365;48.878;8.334;2023-03-21T02:09:55;100276.75;;;9.60;85.90
30598;BME280;17365;48.878;8.334;2023-03-21T02:12:22;100281.19;;;9.75;85.06
30598;BME280;17365;48.878;8.334;2023-03-21T02:14:48;100279.47;;;9.77;85.01
30598;BME280;17365;48.878;8.334;2023-03-21T02:28:08;100264.78;;;9.76;84.66
30598;BME280;17365;48.878;8.334;2023-03-21T02:30:34;100263.00;;;9.69;84.46
30598;BME280;17365;48.878;8.334;2023-03-21T02:33:10;100261.28;;;9.68;85.00
30598;BME280;17365;48.878;8.334;2023-03-21T02:38:34;100255.22;;;9.66;85.09
30598;BME280;17365;48.878;8.334;2023-03-21T02:41:07;100261.38;;;9.81;84.49
30598;BME280;17365;48.878;8.334;2023-03-21T02:43:43;100246.69;;;9.83;84.69
30598;BME280;17365;48.878;8.334;2023-03-21T02:46:14;100254.53;;;9.89;84.40
30598;BME280;17365;48.878;8.334;2023-03-21T02:51:21;100244.84;;;9.67;84.71
30598;BME280;17365;48.878;8.334;2023-03-21T02:54:11;100242.38;;;9.82;84.12
30598;BME280;17365;48.878;8.334;2023-03-21T02:56:33;100244.84;;;9.66;84.15
30598;BME280;17365;48.878;8.334;2023-03-21T02:59:00;100243.97;;;9.63;84.46
30598;BME280;17365;48.878;8.334;2023-03-21T03:01:28;100239.75;;;9.79;83.50
30598;BME280;17365;48.878;8.334;2023-03-21T03:03:53;100243.16;;;9.71;83.28
30598;BME280;17365;48.878;8.334;2023-03-21T03:06:19;100236.28;;;9.74;84.15
30598;BME280;17365;48.878;8.334;2023-03-21T03:16:27;100235.44;;;9.80;83.31
30598;BME280;17365;48.878;8.334;2023-03-21T03:18:59;100229.31;;;9.69;83.93
30598;BME280;17365;48.878;8.334;2023-03-21T03:21:32;100233.63;;;9.68;84.38
30598;BME280;17365;48.878;8.334;2023-03-21T03:26:32;100223.19;;;9.57;84.82
30598;BME280;17365;48.878;8.334;2023-03-21T03:29:00;100224.84;;;9.46;84.89
30598;BME280;17365;48.878;8.334;2023-03-21T03:31:36;100223.19;;;9.53;84.15
30598;BME280;17365;48.878;8.334;2023-03-21T03:34:08;100223.19;;;9.56;83.77
30598;BME280;17365;48.878;8.334;2023-03-21T03:36:38;100227.41;;;9.45;84.01
30598;BME280;17365;48.878;8.334;2023-03-21T03:39:05;100227.44;;;9.46;83.91
30598;BME280;17365;48.878;8.334;2023-03-21T03:41:30;100229.03;;;9.32;84.53
30598;BME280;17365;48.878;8.334;2023-03-21T03:44:00;100224.63;;;9.20;85.35
30598;BME280;17365;48.878;8.334;2023-03-21T03:46:30;100220.22;;;9.10;85.15
30598;BME280;17365;48.878;8.334;2023-03-21T03:48:59;100222.59;;;8.90;85.97
30598;BME280;17365;48.878;8.334;2023-03-21T03:51:32;100224.28;;;8.87;86.50
30598;BME280;17365;48.878;8.334;2023-03-21T03:54:34;100225.94;;;8.82;86.52
30598;BME280;17365;48.878;8.334;2023-03-21T03:56:51;100231.22;;;8.92;85.49
30598;BME280;17365;48.878;8.334;2023-03-21T03:59:17;100230.25;;;8.83;85.88
30598;BME280;17365;48.878;8.334;2023-03-21T04:01:43;100230.25;;;8.83;85.71
30598;BME280;17365;48.878;8.334;2023-03-21T04:04:08;100231.06;;;8.75;85.39
30598;BME280;17365;48.878;8.334;2023-03-21T04:06:34;100226.75;;;8.74;85.61
30598;BME280;17365;48.878;8.334;2023-03-21T04:08:59;100233.59;;;8.71;86.01
30598;BME280;17365;48.878;8.334;2023-03-21T04:11:25;100234.22;;;8.50;86.50
30598;BME280;17365;48.878;8.334;2023-03-21T04:13:51;100231.72;;;8.59;85.95
30598;BME280;17365;48.878;8.334;2023-03-21T04:16:17;100231.34;;;8.29;86.68
30598;BME280;17365;48.878;8.334;2023-03-21T04:18:43;100228.50;;;8.10;88.26
30598;BME280;17365;48.878;8.334;2023-03-21T04:21:09;100231.38;;;8.32;87.23
30598;BME280;17365;48.878;8.334;2023-03-21T04:23:35;100228.09;;;8.43;86.29
30598;BME280;17365;48.878;8.334;2023-03-21T04:26:00;100230.50;;;8.31;86.72
30598;BME280;17365;48.878;8.334;2023-03-21T04:28:26;100225.06;;;8.11;87.87
30598;BME280;17365;48.878;8.334;2023-03-21T04:30:51;100230.28;;;8.14;87.54
30598;BME280;17365;48.878;8.334;2023-03-21T04:33:16;100231.63;;;7.86;88.67
30598;BME280;17365;48.878;8.334;2023-03-21T04:35:41;100226.19;;;8.30;86.95
30598;BME280;17365;48.878;8.334;2023-03-21T04:38:09;100231.13;;;8.13;87.26
30598;BME280;17365;48.878;8.334;2023-03-21T04:40:34;100229.50;;;8.20;87.07
30598;BME280;17365;48.878;8.334;2023-03-21T04:42:59;100232.78;;;8.08;88.00
30598;BME280;17365;48.878;8.334;2023-03-21T04:45:25;100229.72;;;8.35;86.10
30598;BME280;17365;48.878;8.334;2023-03-21T04:47:50;100231.19;;;8.16;86.70
30598;BME280;17365;48.878;8.334;2023-03-21T04:50:15;100229.53;;;8.25;87.57
30598;BME280;17365;48.878;8.334;2023-03-21T04:52:41;100232.13;;;8.25;87.28
30598;BME280;17365;48.878;8.334;2023-03-21T04:55:06;100227.78;;;8.22;87.55
30598;BME280;17365;48.878;8.334;2023-03-21T04:57:34;100227.03;;;8.29;86.87
30598;BME280;17365;48.878;8.334;2023-03-21T04:59:59;100229.47;;;8.18;87.79
30598;BME280;17365;48.878;8.334;2023-03-21T05:02:24;100229.50;;;8.20;87.98
30598;BME280;17365;48.878;8.334;2023-03-21T05:04:49;100209.81;;;8.31;87.38
30598;BME280;17365;48.878;8.334;2023-03-21T05:07:15;100213.97;;;8.18;88.37
30598;BME280;17365;48.878;8.334;2023-03-21T05:09:40;100213.91;;;8.14;88.87
30598;BME280;17365;48.878;8.334;2023-03-21T05:12:05;100208.13;;;8.32;87.79
30598;BME280;17365;48.878;8.334;2023-03-21T05:14:30;100211.41;;;8.18;88.29
30598;BME280;17365;48.878;8.334;2023-03-21T05:16:55;100205.50;;;8.29;88.33
30598;BME280;17365;48.878;8.334;2023-03-21T05:19:28;100209.81;;;8.31;87.51
30598;BME280;17365;48.878;8.334;2023-03-21T05:22:02;100204.69;;;8.33;87.44
30598;BME280;17365;48.878;8.334;2023-03-21T05:24:28;100200.97;;;8.12;88.83
30598;BME280;17365;48.878;8.334;2023-03-21T05:26:54;100197.63;;;8.21;88.45
30598;BME280;17365;48.878;8.334;2023-03-21T05:29:20;100201.63;;;7.98;89.66
30598;BME280;17365;48.878;8.334;2023-03-21T05:31:45;100198.25;;;8.02;89.75
30598;BME280;17365;48.878;8.334;2023-03-21T05:34:11;100194.22;;;8.25;88.78
30598;BME280;17365;48.878;8.334;2023-03-21T05:36:36;100203.72;;;8.25;88.00
30598;BME280;17365;48.878;8.334;2023-03-21T05:39:02;100205.22;;;8.09;88.55
30598;BME280;17365;48.878;8.334;2023-03-21T05:41:27;100202.56;;;8.03;88.89
30598;BME280;17365;48.878;8.334;2023-03-21T05:43:52;100208.06;;;8.27;87.65
30598;BME280;17365;48.878;8.334;2023-03-21T05:46:18;100209.81;;;8.31;87.70
30598;BME280;17365;48.878;8.334;2023-03-21T05:48:43;100207.16;;;8.25;87.76
30598;BME280;17365;48.878;8.334;2023-03-21T05:51:08;100213.19;;;8.24;87.26
30598;BME280;17365;48.878;8.334;2023-03-21T05:53:33;100211.63;;;8.35;86.67
30598;BME280;17365;48.878;8.334;2023-03-21T05:55:58;100211.63;;;8.35;86.77
30598;BME280;17365;48.878;8.334;2023-03-21T05:58:24;100216.75;;;8.34;86.68
30598;BME280;17365;48.878;8.334;2023-03-21T06:00:49;100216.69;;;8.29;86.66
30598;BME280;17365;48.878;8.334;2023-03-21T06:03:15;100218.19;;;8.13;87.12
30598;BME280;17365;48.878;8.334;2023-03-21T06:05:40;100217.84;;;7.86;88.47
30598;BME280;17365;48.878;8.334;2023-03-21T06:08:05;100218.88;;;8.00;87.90
30598;BME280;17365;48.878;8.334;2023-03-21T06:10:31;100222.50;;;8.14;87.08
30598;BME280;17365;48.878;8.334;2023-03-21T06:12:56;100225.09;;;8.13;86.86
30598;BME280;17365;48.878;8.334;2023-03-21T06:15:21;100227.84;;;8.27;86.54
30598;BME280;17365;48.878;8.334;2023-03-21T06:17:46;100233.97;;;8.32;85.97
30598;BME280;17365;48.878;8.334;2023-03-21T06:20:12;100232.66;;;8.61;84.70
30598;BME280;17365;48.878;8.334;2023-03-21T06:22:37;100236.16;;;8.69;84.45
30598;BME280;17365;48.878;8.334;2023-03-21T06:25:03;100232.72;;;8.70;83.81
30598;BME280;17365;48.878;8.334;2023-03-21T06:27:29;100234.41;;;8.65;84.14
30598;BME280;17365;48.878;8.334;2023-03-21T06:29:54;100233.38;;;8.50;85.73
30598;BME280;17365;48.878;8.334;2023-03-21T06:32:19;100233.16;;;8.36;85.51
30598;BME280;17365;48.878;8.334;2023-03-21T06:34:45;100238.59;;;8.57;86.07
30598;BME280;17365;48.878;8.334;2023-03-21T06:37:11;100230.38;;;8.92;85.14
30598;BME280;17365;48.878;8.334;2023-03-21T06:39:36;100238.19;;;8.95;84.29
30598;BME280;17365;48.878;8.334;2023-03-21T06:42:01;100236.84;;;8.55;86.61
30598;BME280;17365;48.878;8.334;2023-03-21T06:44:27;100236.56;;;9.06;84.65
30598;BME280;17365;48.878;8.334;2023-03-21T06:46:52;100233.34;;;9.31;83.24
30598;BME280;17365;48.878;8.334;2023-03-21T06:49:18;100243.81;;;9.44;81.55
30598;BME280;17365;48.878;8.334;2023-03-21T06:51:44;100237.34;;;8.99;83.72
30598;BME280;17365;48.878;8.334;2023-03-21T06:54:09;100241.78;;;9.09;83.76
30598;BME280;17365;48.878;8.334;2023-03-21T06:56:35;100238.63;;;8.60;85.38
30598;BME280;17365;48.878;8.334;2023-03-21T06:59:00;100240.38;;;9.49;83.85
30598;BME280;17365;48.878;8.334;2023-03-21T07:01:26;100243.91;;;9.54;81.59
30598;BME280;17365;48.878;8.334;2023-03-21T07:03:52;100235.19;;;9.45;81.33
30598;BME280;17365;48.878;8.334;2023-03-21T07:06:17;100232.50;;;9.32;81.17
30598;BME280;17365;48.878;8.334;2023-03-21T07:08:43;100231.28;;;10.00;79.73
30598;BME280;17365;48.878;8.334;2023-03-21T07:11:08;100227.13;;;10.28;77.47
30598;BME280;17365;48.878;8.334;2023-03-21T07:13:33;100214.97;;;10.21;75.85
30598;BME280;17365;48.878;8.334;2023-03-21T07:15:59;100220.09;;;10.09;76.95
30598;BME280;17365;48.878;8.334;2023-03-21T07:18:24;100220.06;;;10.07;76.93
30598;BME280;17365;48.878;8.334;2023-03-21T07:20:50;100220.97;;;10.14;76.50
30598;BME280;17365;48.878;8.334;2023-03-21T07:23:19;100208.88;;;10.19;77.27
30598;BME280;17365;48.878;8.334;2023-03-21T07:25:46;100214.88;;;10.06;76.79
30598;BME280;17365;48.878;8.334;2023-03-21T07:28:11;100209.69;;;10.06;77.34
30598;BME280;17365;48.878;8.334;2023-03-21T07:30:36;100212.13;;;9.75;77.98
30598;BME280;17365;48.878;8.334;2023-03-21T07:33:01;100208.72;;;9.85;78.25
30598;BME280;17365;48.878;8.334;2023-03-21T07:35:27;100204.41;;;9.87;76.44
30598;BME280;17365;48.878;8.334;2023-03-21T07:37:52;100200.88;;;9.75;77.66
30598;BME280;17365;48.878;8.334;2023-03-21T07:40:18;100191.34;;;9.71;77.11
30598;BME280;17365;48.878;8.334;2023-03-21T07:42:43;100196.72;;;9.97;76.98
30598;BME280;17365;48.878;8.334;2023-03-21T07:45:09;100201.88;;;9.98;76.87
30598;BME280;17365;48.878;8.334;2023-03-21T07:47:34;100198.50;;;10.17;74.86
30598;BME280;17365;48.878;8.334;2023-03-21T07:50:00;100191.72;;;10.33;75.84
30598;BME280;17365;48.878;8.334;2023-03-21T07:52:26;100200.41;;;10.52;74.97
30598;BME280;17365;48.878;8.334;2023-03-21T07:54:51;100206.56;;;10.80;73.72
30598;BME280;17365;48.878;8.334;2023-03-21T07:57:16;100216.00;;;10.60;73.38
30598;BME280;17365;48.878;8.334;2023-03-21T07:59:41;100216.13;;;11.21;72.62
30598;BME280;17365;48.878;8.334;2023-03-21T08:02:09;100210.06;;;11.09;73.88
30598;BME280;17365;48.878;8.334;2023-03-21T08:04:35;100214.41;;;11.18;72.50
30598;BME280;17365;48.878;8.334;2023-03-21T08:07:00;100212.69;;;11.55;72.81
30598;BME280;17365;48.878;8.334;2023-03-21T08:09:25;100210.09;;;11.81;70.65
30598;BME280;17365;48.878;8.334;2023-03-21T08:11:51;100211.81;;;11.70;69.24
30598;BME280;17365;48.878;8.334;2023-03-21T08:14:16;100210.06;;;11.87;69.74
30598;BME280;17365;48.878;8.334;2023-03-21T08:16:41;100212.53;;;12.41;69.09
30598;BME280;17365;48.878;8.334;2023-03-21T08:19:06;100220.19;;;12.70;67.11
30598;BME280;17365;48.878;8.334;2023-03-21T08:21:31;100212.41;;;12.70;66.41
30598;BME280;17365;48.878;8.334;2023-03-21T08:23:57;100211.56;;;12.60;65.72
30598;BME280;17365;48.878;8.334;2023-03-21T08:26:22;100207.88;;;12.99;65.87
30598;BME280;17365;48.878;8.334;2023-03-21T08:28:49;100208.97;;;12.62;65.75
30598;BME280;17365;48.878;8.334;2023-03-21T08:31:14;100210.47;;;12.99;65.21
30598;BME280;17365;48.878;8.334;2023-03-21T08:33:40;100209.09;;;12.36;64.86
30598;BME280;17365;48.878;8.334;2023-03-21T08:36:05;100214.22;;;12.43;65.38
30598;BME280;17365;48.878;8.334;2023-03-21T08:38:30;100208.16;;;12.47;65.22
30598;BME280;17365;48.878;8.334;2023-03-21T08:40:57;100216.72;;;12.71;64.56
30598;BME280;17365;48.878;8.334;2023-03-21T08:43:24;100204.72;;;12.33;65.37
30598;BME280;17365;48.878;8.334;2023-03-21T08:45:49;100209.53;;;13.14;64.94
30598;BME280;17365;48.878;8.334;2023-03-21T08:48:15;100208.56;;;13.29;63.71
30598;BME280;17365;48.878;8.334;2023-03-21T08:50:40;100211.66;;;12.42;65.67
30598;BME280;17365;48.878;8.334;2023-03-21T08:53:05;100205.75;;;11.91;67.29
30598;BME280;17365;48.878;8.334;2023-03-21T08:55:30;100215.31;;;11.80;68.17
30598;BME280;17365;48.878;8.334;2023-03-21T08:57:57;100210.03;;;12.04;68.19
30598;BME280;17365;48.878;8.334;2023-03-21T09:00:22;100211.78;;;11.98;68.32
30598;BME280;17365;48.878;8.334;2023-03-21T09:02:48;100213.47;;;12.09;67.14
30598;BME280;17365;48.878;8.334;2023-03-21T09:05:15;100208.31;;;12.02;66.93
30598;BME280;17365;48.878;8.334;2023-03-21T09:07:41;100212.66;;;11.87;68.12
30598;BME280;17365;48.878;8.334;2023-03-21T09:10:07;100206.59;;;11.94;67.09
30598;BME280;17365;48.878;8.334;2023-03-21T09:12:34;100205.66;;;12.26;67.40
30598;BME280;17365;48.878;8.334;2023-03-21T09:14:59;100207.34;;;12.30;67.13
30598;BME280;17365;48.878;8.334;2023-03-21T09:17:26;100209.97;;;12.22;66.60
30598;BME280;17365;48.878;8.334;2023-03-21T09:19:51;100217.03;;;11.90;67.50
30598;BME280;17365;48.878;8.334;2023-03-21T09:22:17;100215.28;;;11.90;68.40
30598;BME280;17365;48.878;8.334;2023-03-21T09:24:43;100220.44;;;12.04;67.99
30598;BME280;17365;48.878;8.334;2023-03-21T09:27:11;100216.16;;;11.92;69.66
30598;BME280;17365;48.878;8.334;2023-03-21T09:29:38;100217.88;;;11.93;69.43
30598;BME280;17365;48.878;8.334;2023-03-21T09:32:03;100219.59;;;11.64;68.63
30598;BME280;17365;48.878;8.334;2023-03-21T09:34:30;100211.81;;;11.85;68.44
30598;BME280;17365;48.878;8.334;2023-03-21T09:36:55;100223.94;;;11.94;68.22
30598;BME280;17365;48.878;8.334;2023-03-21T09:39:21;100226.50;;;11.76;68.58
30598;BME280;17365;48.878;8.334;2023-03-21T09:45:14;100220.50;;;11.81;68.25
30598;BME280;17365;48.878;8.334;2023-03-21T09:47:14;100220.31;;;12.48;66.25
30598;BME280;17365;48.878;8.334;2023-03-21T09:49:46;100218.59;;;12.46;65.58
30598;BME280;17365;48.878;8.334;2023-03-21T09:52:23;100217.81;;;12.09;66.01
30598;BME280;17365;48.878;8.334;2023-03-21T09:54:50;100223.03;;;12.15;65.97
30598;BME280;17365;48.878;8.334;2023-03-21T09:59:45;100228.13;;;12.47;66.35
30598;BME280;17365;48.878;8.334;2023-03-21T10:05:17;100222.91;;;12.44;65.66
30598;BME280;17365;48.878;8.334;2023-03-21T10:07:45;100223.00;;;12.26;67.08
30598;BME280;17365;48.878;8.334;2023-03-21T10:10:14;100227.31;;;12.28;66.32
30598;BME280;17365;48.878;8.334;2023-03-21T10:12:41;100221.19;;;12.41;65.71
30598;BME280;17365;48.878;8.334;2023-03-21T10:15:07;100229.91;;;12.30;65.17
30598;BME280;17365;48.878;8.334;2023-03-21T10:17:39;100218.34;;;12.87;64.60
30598;BME280;17365;48.878;8.334;2023-03-21T10:20:24;100206.03;;;13.20;62.89
30598;BME280;17365;48.878;8.334;2023-03-21T10:22:51;100213.91;;;13.06;62.19
30598;BME280;17365;48.878;8.334;2023-03-21T10:25:18;100201.53;;;13.40;62.20
30598;BME280;17365;48.878;8.334;2023-03-21T10:27:45;100192.28;;;12.90;61.97
30598;BME280;17365;48.878;8.334;2023-03-21T10:32:56;100194.28;;;13.74;60.63
30598;BME280;17365;48.878;8.334;2023-03-21T10:35:23;100191.53;;;13.86;58.63
30598;BME280;17365;48.878;8.334;2023-03-21T10:37:48;100193.19;;;13.95;58.26
30598;BME280;17365;48.878;8.334;2023-03-21T10:40:14;100178.28;;;14.06;59.27
30598;BME280;17365;48.878;8.334;2023-03-21T10:42:40;100192.91;;;13.32;60.69
30598;BME280;17365;48.878;8.334;2023-03-21T10:45:12;100187.03;;;12.99;60.97
30598;BME280;17365;48.878;8.334;2023-03-21T10:47:38;100172.19;;;14.04;59.27
30598;BME280;17365;48.878;8.334;2023-03-21T10:50:04;100167.19;;;14.60;58.01
30598;BME280;17365;48.878;8.334;2023-03-21T10:52:29;100162.16;;;13.69;58.99
30598;BME280;17365;48.878;8.334;2023-03-21T10:55:03;100162.56;;;13.28;60.39
30598;BME280;17365;48.878;8.334;2023-03-21T10:57:30;100163.34;;;13.34;60.36
30598;BME280;17365;48.878;8.334;2023-03-21T10:59:57;100163.16;;;13.56;60.95
30598;BME280;17365;48.878;8.334;2023-03-21T11:02:31;100166.19;;;13.99;60.48
30598;BME280;17365;48.878;8.334;2023-03-21T11:04:57;100167.66;;;13.40;60.29
30598;BME280;17365;48.878;8.334;2023-03-21T11:07:28;100159.44;;;13.78;59.29
30598;BME280;17365;48.878;8.334;2023-03-21T11:09:59;100155.69;;;14.04;58.43
30598;BME280;17365;48.878;8.334;2023-03-21T11:12:29;100151.34;;;14.03;58.78
30598;BME280;17365;48.878;8.334;2023-03-21T11:14:54;100159.44;;;13.78;58.78
30598;BME280;17365;48.878;8.334;2023-03-21T11:17:27;100151.56;;;13.86;58.84
30598;BME280;17365;48.878;8.334;2023-03-21T11:19:57;100149.66;;;14.00;58.40
30598;BME280;17365;48.878;8.334;2023-03-21T11:22:24;100154.91;;;13.97;58.99
30598;BME280;17365;48.878;8.334;2023-03-21T11:24:53;100146.84;;;14.17;57.77
30598;BME280;17365;48.878;8.334;2023-03-21T11:27:21;100139.63;;;14.39;57.26
30598;BME280;17365;48.878;8.334;2023-03-21T11:29:47;100133.38;;;14.52;56.56
30598;BME280;17365;48.878;8.334;2023-03-21T11:32:20;100133.41;;;15.07;55.17
30598;BME280;17365;48.878;8.334;2023-03-21T11:34:46;100129.59;;;14.71;55.66
30598;BME280;17365;48.878;8.334;2023-03-21T11:40:05;100123.84;;;15.06;54.69
30598;BME280;17365;48.878;8.334;2023-03-21T11:42:32;100124.41;;;15.24;53.71
30598;BME280;17365;48.878;8.334;2023-03-21T11:45:18;100119.69;;;15.46;53.85
30598;BME280;17365;48.878;8.334;2023-03-21T11:47:44;100117.91;;;14.97;55.75
30598;BME280;17365;48.878;8.334;2023-03-21T11:52:40;100103.19;;;15.90;52.78
30598;BME280;17365;48.878;8.334;2023-03-21T11:55:22;100101.72;;;15.73;53.52
30598;BME280;17365;48.878;8.334;2023-03-21T11:57:54;100092.41;;;15.59;53.23
30598;BME280;17365;48.878;8.334;2023-03-21T12:00:29;100091.53;;;16.05;53.62
30598;BME280;17365;48.878;8.334;2023-03-21T12:05:35;100081.31;;;16.34;49.54
30598;BME280;17365;48.878;8.334;2023-03-21T12:10:28;100071.00;;;15.86;50.78
30598;BME280;17365;48.878;8.334;2023-03-21T12:12:56;100075.16;;;15.95;50.30
30598;BME280;17365;48.878;8.334;2023-03-21T12:18:01;100073.31;;;16.79;47.83
30598;BME280;17365;48.878;8.334;2023-03-21T12:33:44;100053.56;;;16.25;49.44
30598;BME280;17365;48.878;8.334;2023-03-21T12:39:09;100040.47;;;16.25;47.84
30598;BME280;17365;48.878;8.334;2023-03-21T12:44:10;100031.56;;;16.34;48.85
30598;BME280;17365;48.878;8.334;2023-03-21T12:49:07;100026.78;;;16.51;47.42
30598;BME280;17365;48.878;8.334;2023-03-21T12:51:35;100022.28;;;16.21;49.06
30598;BME280;17365;48.878;8.334;2023-03-21T12:59:32;100002.31;;;17.22;47.08
30598;BME280;17365;48.878;8.334;2023-03-21T13:02:03;100005.28;;;16.74;46.18
30598;BME280;17365;48.878;8.334;2023-03-21T13:05:21;100003.38;;;17.15;46.41
30598;BME280;17365;48.878;8.334;2023-03-21T13:07:27;100005.78;;;16.54;46.85
30598;BME280;17365;48.878;8.334;2023-03-21T13:09:55;100008.63;;;16.81;47.07
30598;BME280;17365;48.878;8.334;2023-03-21T13:12:30;100004.03;;;16.91;46.38
30598;BME280;17365;48.878;8.334;2023-03-21T13:17:31;100003.13;;;17.55;45.24
30598;BME280;17365;48.878;8.334;2023-03-21T13:20:03;100004.31;;;17.43;44.41
30598;BME280;17365;48.878;8.334;2023-03-21T13:22:32;100001.03;;;16.70;45.76
30598;BME280;17365;48.878;8.334;2023-03-21T13:27:41;99990.41;;;16.39;46.59
30598;BME280;17365;48.878;8.334;2023-03-21T13:32:38;99987.44;;;16.90;46.52
30598;BME280;17365;48.878;8.334;2023-03-21T13:37:33;99984.88;;;16.51;46.89
30598;BME280;17365;48.878;8.334;2023-03-21T13:40:01;99986.63;;;16.51;47.15
30598;BME280;17365;48.878;8.334;2023-03-21T13:42:31;99989.56;;;16.74;45.93
30598;BME280;17365;48.878;8.334;2023-03-21T13:44:58;99975.06;;;16.95;45.88
30598;BME280;17365;48.878;8.334;2023-03-21T13:55:40;99976.84;;;16.59;47.26
30598;BME280;17365;48.878;8.334;2023-03-21T14:01:15;99973.75;;;16.42;48.56
30598;BME280;17365;48.878;8.334;2023-03-21T14:03:45;99961.72;;;16.35;48.24
30598;BME280;17365;48.878;8.334;2023-03-21T14:06:14;99955.56;;;17.05;47.75
30598;BME280;17365;48.878;8.334;2023-03-21T14:08:41;99957.09;;;16.46;48.67
30598;BME280;17365;48.878;8.334;2023-03-21T14:11:11;99951.44;;;16.97;47.41
30598;BME280;17365;48.878;8.334;2023-03-21T14:13:40;99946.81;;;16.74;47.69
30598;BME280;17365;48.878;8.334;2023-03-21T14:16:06;99941.16;;;16.55;47.80
30598;BME280;17365;48.878;8.334;2023-03-21T14:18:39;99946.88;;;16.35;47.84
30598;BME280;17365;48.878;8.334;2023-03-21T14:21:05;99944.91;;;16.45;48.12
30598;BME280;17365;48.878;8.334;2023-03-21T14:23:30;99944.16;;;16.02;48.41
30598;BME280;17365;48.878;8.334;2023-03-21T14:25:55;99939.53;;;16.14;48.14
30598;BME280;17365;48.878;8.334;2023-03-21T14:28:24;99945.19;;;15.97;48.19
30598;BME280;17365;48.878;8.334;2023-03-21T14:30:51;99941.25;;;16.15;48.42
30598;BME280;17365;48.878;8.334;2023-03-21T14:36:04;99939.38;;;16.21;47.52